Time;durP1;ratioP1;P1;durP2;ratioP2;P2;SDS_P1;SDS_P2;PMS_P1;PMS_P2;Temp;Humidity;BMP_temperature;BMP_pressure;BME280_temperature;BME280_humidity;BME280_pressure;Samples;Min_cycle;Max_cycle;Signal;HPM_P1;HPM_P2
2024/04/06 00:01:33;;;;;;;0.40;0.30;;;17.00;99.90;;;;;;5085069;28;20473;-71
2024/04/06 00:03:58;;;;;;;1.97;1.87;;;17.00;99.90;;;;;;5087348;28;20219;-72
2024/04/06 00:06:24;;;;;;;1.97;1.87;;;17.00;99.90;;;;;;5089215;28;20196;-72
2024/04/06 00:08:50;;;;;;;0.30;0.20;;;17.00;99.90;;;;;;5088988;28;20275;-72
2024/04/06 00:11:17;;;;;;;0.70;0.70;;;17.00;99.90;;;;;;5104694;28;20411;-72
2024/04/06 00:13:42;;;;;;;0.30;0.20;;;17.00;99.90;;;;;;5088179;28;20681;-72
2024/04/06 00:16:08;;;;;;;0.40;0.30;;;16.90;99.90;;;;;;5104599;28;20428;-72
2024/04/06 00:18:35;;;;;;;0.80;0.80;;;16.90;99.90;;;;;;5088585;28;20629;-72
2024/04/06 00:21:02;;;;;;;4.63;1.50;;;16.80;99.90;;;;;;5104714;28;20187;-72
2024/04/06 00:23:28;;;;;;;0.33;0.30;;;16.80;99.90;;;;;;5088440;28;20480;-72
2024/04/06 00:25:54;;;;;;;0.80;0.80;;;16.80;99.90;;;;;;5089071;28;20496;-72
2024/04/06 00:28:19;;;;;;;3.20;2.90;;;16.70;99.90;;;;;;5088297;28;20432;-72
2024/04/06 00:30:45;;;;;;;1.23;1.23;;;16.70;99.90;;;;;;5104764;28;20415;-72
2024/04/06 00:33:12;;;;;;;0.30;0.20;;;16.70;99.90;;;;;;5088437;28;20196;-72
2024/04/06 00:35:38;;;;;;;0.60;0.60;;;16.60;99.90;;;;;;5087509;28;20194;-72
2024/04/06 00:38:04;;;;;;;0.40;0.30;;;16.60;99.90;;;;;;5088868;28;20424;-72
2024/04/06 00:40:30;;;;;;;0.97;0.60;;;16.50;99.90;;;;;;5088404;28;20955;-72
2024/04/06 00:42:55;;;;;;;0.90;0.90;;;16.50;99.90;;;;;;5088338;28;20231;-72
2024/04/06 00:45:21;;;;;;;1.53;1.43;;;16.50;99.90;;;;;;5088203;28;20169;-72
2024/04/06 00:47:47;;;;;;;0.40;0.40;;;16.40;99.90;;;;;;5088305;28;20192;-72
2024/04/06 00:50:13;;;;;;;0.57;0.57;;;16.40;99.90;;;;;;5104178;28;20437;-72
2024/04/06 00:52:39;;;;;;;1.57;0.93;;;16.40;99.90;;;;;;5088085;28;20428;-72
2024/04/06 00:55:05;;;;;;;1.00;1.00;;;16.30;99.90;;;;;;5104169;28;20199;-72
2024/04/06 00:57:31;;;;;;;1.23;1.13;;;16.30;99.90;;;;;;5103275;28;20429;-72
2024/04/06 00:59:57;;;;;;;2.00;1.23;;;16.30;99.90;;;;;;5103865;28;20429;-72
2024/04/06 01:02:23;;;;;;;0.50;0.50;;;16.20;99.90;;;;;;5087857;28;20533;-74
2024/04/06 01:04:49;;;;;;;0.40;0.40;;;16.20;99.90;;;;;;5103559;28;20695;-74
2024/04/06 01:07:14;;;;;;;0.40;0.40;;;16.20;99.90;;;;;;5087946;28;20524;-74
2024/04/06 01:09:41;;;;;;;1.13;1.13;;;16.10;99.90;;;;;;5103786;28;20191;-72
2024/04/06 01:12:06;;;;;;;0.30;0.20;;;16.10;99.90;;;;;;5087810;28;20168;-72
2024/04/06 01:14:33;;;;;;;0.40;0.40;;;16.10;99.90;;;;;;5087045;28;20417;-71
2024/04/06 01:16:58;;;;;;;1.00;1.00;;;16.00;99.90;;;;;;5086935;28;20416;-72
2024/04/06 01:19:24;;;;;;;1.13;1.13;;;16.00;99.90;;;;;;5088084;28;20494;-72
2024/04/06 01:21:49;;;;;;;2.00;0.80;;;16.00;99.90;;;;;;5087653;28;20717;-72
2024/04/06 01:24:28;;;;;;;0.87;0.87;;;15.90;99.90;;;;;;5087438;28;20199;-72
2024/04/06 01:26:55;;;;;;;3.70;3.40;;;15.90;99.90;;;;;;5088062;28;20173;-72
2024/04/06 01:29:23;;;;;;;0.60;0.60;;;15.80;99.90;;;;;;5087652;28;20435;-71
2024/04/06 01:31:49;;;;;;;0.70;0.70;;;15.70;99.90;;;;;;5087549;28;20397;-71
2024/04/06 01:34:14;;;;;;;0.40;0.37;;;15.60;99.90;;;;;;5086971;28;20516;-71
2024/04/06 01:36:40;;;;;;;1.07;0.97;;;15.50;99.90;;;;;;5087711;28;20183;-72
2024/04/06 01:39:07;;;;;;;2.10;2.00;;;15.30;99.90;;;;;;5087571;28;20196;-72
2024/04/06 01:41:35;;;;;;;1.90;1.00;;;15.30;99.90;;;;;;5087483;28;20417;-71
2024/04/06 01:44:01;;;;;;;0.30;0.30;;;15.20;99.90;;;;;;5087119;28;20480;-71
2024/04/06 01:46:26;;;;;;;0.33;0.30;;;15.10;99.90;;;;;;5102994;28;20424;-71
2024/04/06 01:48:52;;;;;;;0.30;0.30;;;15.10;99.90;;;;;;5087171;28;20196;-71
2024/04/06 01:51:18;;;;;;;0.40;0.20;;;15.00;99.90;;;;;;5087158;28;20165;-72
2024/04/06 01:53:45;;;;;;;0.30;0.30;;;15.00;99.90;;;;;;5102651;28;20204;-72
2024/04/06 01:56:11;;;;;;;1.40;0.83;;;15.00;99.90;;;;;;5087194;28;20549;-73
2024/04/06 01:58:37;;;;;;;1.83;1.73;;;15.00;99.90;;;;;;5086632;28;20465;-74
2024/04/06 02:01:03;;;;;;;0.40;0.37;;;15.10;99.90;;;;;;5103076;28;20439;-72
2024/04/06 02:03:29;;;;;;;0.30;0.20;;;15.10;99.90;;;;;;5086643;28;20216;-72
2024/04/06 02:05:56;;;;;;;1.23;1.07;;;15.20;99.90;;;;;;5087135;28;20622;-71
2024/04/06 02:08:25;;;;;;;0.30;0.20;;;15.20;99.90;;;;;;5101898;28;20437;-71
2024/04/06 02:10:51;;;;;;;0.40;0.40;;;15.20;99.90;;;;;;5102491;28;20464;-71
2024/04/06 02:13:16;;;;;;;0.87;0.87;;;15.20;99.90;;;;;;5086229;28;20469;-71
2024/04/06 02:15:43;;;;;;;0.80;0.80;;;15.20;99.90;;;;;;5102403;28;20226;-72
2024/04/06 02:18:09;;;;;;;0.30;0.30;;;15.20;99.90;;;;;;5085661;28;20196;-72
2024/04/06 02:20:35;;;;;;;0.97;0.97;;;15.30;99.90;;;;;;5086486;28;20947;-71
2024/04/06 02:23:00;;;;;;;0.30;0.20;;;15.30;99.90;;;;;;5086259;28;20220;-71
2024/04/06 02:25:26;;;;;;;0.70;0.53;;;15.30;99.90;;;;;;5086401;28;20168;-72
2024/04/06 02:27:52;;;;;;;1.17;1.17;;;15.30;99.90;;;;;;5086029;28;20188;-72
2024/04/06 02:30:18;;;;;;;0.60;0.57;;;15.30;99.90;;;;;;5086628;28;20185;-71
2024/04/06 02:32:43;;;;;;;0.40;0.37;;;15.30;99.90;;;;;;5101478;28;20455;-72
2024/04/06 02:35:09;;;;;;;0.47;0.47;;;15.40;99.90;;;;;;5101978;28;20604;-72
2024/04/06 02:37:34;;;;;;;0.50;0.50;;;15.50;99.90;;;;;;5101673;28;20200;-71
2024/04/06 02:40:00;;;;;;;0.57;0.57;;;15.50;99.90;;;;;;5086453;28;20176;-72
2024/04/06 02:42:26;;;;;;;2.73;1.07;;;15.60;99.90;;;;;;5085526;28;20742;-72
2024/04/06 02:44:51;;;;;;;0.40;0.33;;;15.70;99.90;;;;;;5086429;28;20183;-73
2024/04/06 02:47:17;;;;;;;0.50;0.50;;;15.80;99.90;;;;;;5086070;28;20267;-72
2024/04/06 02:49:42;;;;;;;1.23;1.07;;;15.90;99.90;;;;;;5086310;28;20181;-72
2024/04/06 02:52:08;;;;;;;0.40;0.40;;;16.00;99.90;;;;;;5085833;28;20179;-72
2024/04/06 02:54:34;;;;;;;0.83;0.77;;;16.00;99.90;;;;;;5085999;28;20672;-72
2024/04/06 02:57:00;;;;;;;0.30;0.30;;;16.10;99.90;;;;;;5085486;28;20168;-72
2024/04/06 02:59:26;;;;;;;2.10;1.90;;;16.10;99.90;;;;;;5101406;28;20319;-72
2024/04/06 03:01:52;;;;;;;0.30;0.20;;;16.10;99.90;;;;;;5086118;28;20500;-71
2024/04/06 03:04:18;;;;;;;0.30;0.20;;;16.10;99.90;;;;;;5085850;28;21001;-72
2024/04/06 03:06:43;;;;;;;0.80;0.80;;;16.20;99.90;;;;;;5085963;28;20181;-72
2024/04/06 03:09:09;;;;;;;0.33;0.33;;;16.20;99.90;;;;;;5085734;28;20877;-71
2024/04/06 03:11:35;;;;;;;2.13;1.73;;;16.20;99.90;;;;;;5085636;28;20176;-72
2024/04/06 03:14:00;;;;;;;0.50;0.50;;;16.30;99.90;;;;;;5085575;28;20282;-72
2024/04/06 03:16:26;;;;;;;0.30;0.30;;;16.30;99.90;;;;;;5085877;28;20532;-72
2024/04/06 03:18:52;;;;;;;0.30;0.30;;;16.30;99.90;;;;;;5100949;28;20200;-71
2024/04/06 03:21:17;;;;;;;2.00;0.70;;;16.20;99.90;;;;;;5100110;28;20179;-71
2024/04/06 03:23:43;;;;;;;0.30;0.20;;;16.20;99.90;;;;;;5100889;28;20228;-72
2024/04/06 03:26:09;;;;;;;0.30;0.30;;;16.20;99.90;;;;;;5085799;28;20259;-72
2024/04/06 03:28:34;;;;;;;0.97;0.97;;;16.20;99.90;;;;;;5085712;28;20228;-71
2024/04/06 03:31:00;;;;;;;0.43;0.43;;;16.20;99.90;;;;;;5086151;28;20218;-72
2024/04/06 03:33:25;;;;;;;0.30;0.20;;;16.20;99.90;;;;;;5084711;28;20204;-72
2024/04/06 03:35:51;;;;;;;1.07;1.07;;;16.20;99.90;;;;;;5085531;28;20399;-72
2024/04/06 03:38:17;;;;;;;0.73;0.73;;;16.20;99.90;;;;;;5100072;28;20941;-71
2024/04/06 03:40:43;;;;;;;1.07;1.07;;;16.10;99.90;;;;;;5085640;28;20652;-72
2024/04/06 03:43:08;;;;;;;0.50;0.50;;;16.10;99.90;;;;;;5084839;28;20216;-71
2024/04/06 03:45:37;;;;;;;0.30;0.30;;;16.10;99.90;;;;;;5085431;28;20180;-72
2024/04/06 03:48:03;;;;;;;1.63;1.13;;;16.10;99.90;;;;;;5085208;28;20201;-72
2024/04/06 03:50:30;;;;;;;0.30;0.20;;;16.10;99.90;;;;;;5085416;28;20405;-72
2024/04/06 03:52:55;;;;;;;0.67;0.67;;;16.10;99.90;;;;;;5084612;28;21109;-72
2024/04/06 03:55:21;;;;;;;0.80;0.80;;;16.10;99.90;;;;;;5100832;28;20424;-72
2024/04/06 03:57:47;;;;;;;2.20;0.83;;;16.10;99.90;;;;;;5084919;28;20222;-71
2024/04/06 04:00:15;;;;;;;0.30;0.30;;;16.10;99.90;;;;;;5085371;28;20771;-72
2024/04/06 04:02:41;;;;;;;3.63;2.00;;;16.10;99.90;;;;;;5100350;28;20896;-72
2024/04/06 04:05:10;;;;;;;0.30;0.30;;;16.00;99.90;;;;;;5085619;28;20790;-72
2024/04/06 04:07:36;;;;;;;3.90;2.50;;;16.00;99.90;;;;;;5100067;28;20938;-71
2024/04/06 04:10:06;;;;;;;0.30;0.20;;;15.90;99.90;;;;;;5100846;28;20507;-72
2024/04/06 04:12:35;;;;;;;1.60;0.87;;;15.90;99.90;;;;;;5100368;28;20436;-72
2024/04/06 04:15:04;;;;;;;0.40;0.33;;;15.80;99.90;;;;;;5085137;28;20945;-72
2024/04/06 04:17:32;;;;;;;0.57;0.57;;;15.70;99.90;;;;;;5100346;28;20449;-72
2024/04/06 04:19:58;;;;;;;1.27;1.10;;;15.70;99.90;;;;;;5084016;28;20424;-71
2024/04/06 04:22:24;;;;;;;0.30;0.20;;;15.80;99.90;;;;;;5084559;28;20538;-72
2024/04/06 04:24:49;;;;;;;0.97;0.93;;;15.80;99.90;;;;;;5085025;28;20921;-72
2024/04/06 04:27:15;;;;;;;2.60;1.80;;;15.80;99.90;;;;;;5100271;28;20667;-72
2024/04/06 04:29:41;;;;;;;0.30;0.30;;;15.90;99.90;;;;;;5085123;28;20232;-72
2024/04/06 04:32:07;;;;;;;0.53;0.53;;;15.90;99.90;;;;;;5084373;28;20197;-72
2024/04/06 04:34:33;;;;;;;0.60;0.60;;;15.90;99.90;;;;;;5100564;28;20276;-72
2024/04/06 04:36:58;;;;;;;0.30;0.30;;;15.90;99.90;;;;;;5084791;28;20437;-72
2024/04/06 04:39:24;;;;;;;0.30;0.20;;;15.90;99.90;;;;;;5100582;28;20529;-71
2024/04/06 04:41:53;;;;;;;0.40;0.40;;;15.90;99.90;;;;;;5084705;28;20447;-72
2024/04/06 04:44:19;;;;;;;0.30;0.30;;;15.90;99.90;;;;;;5100367;28;20205;-72
2024/04/06 04:46:45;;;;;;;0.50;0.50;;;15.90;99.90;;;;;;5084719;28;20917;-72
2024/04/06 04:49:10;;;;;;;0.73;0.60;;;15.90;99.90;;;;;;5084607;28;20193;-72
2024/04/06 04:51:36;;;;;;;0.30;0.23;;;15.90;99.90;;;;;;5103749;28;20684;-71
2024/04/06 04:54:03;;;;;;;0.30;0.20;;;15.80;99.90;;;;;;5103612;28;20653;-72
2024/04/06 04:56:28;;;;;;;0.80;0.80;;;15.80;99.90;;;;;;5103851;28;20184;-72
2024/04/06 04:58:54;;;;;;;0.40;0.30;;;15.70;99.90;;;;;;5087393;28;20478;-72
2024/04/06 05:01:19;;;;;;;0.30;0.20;;;15.70;99.90;;;;;;5103752;28;20201;-72
2024/04/06 05:03:45;;;;;;;0.30;0.23;;;15.70;99.90;;;;;;5103526;28;20273;-72
2024/04/06 05:06:11;;;;;;;0.30;0.20;;;15.80;99.90;;;;;;5104047;28;20173;-72
2024/04/06 05:08:36;;;;;;;0.37;0.33;;;15.80;99.90;;;;;;5087501;28;20213;-72
2024/04/06 05:11:02;;;;;;;0.30;0.20;;;15.90;99.90;;;;;;5088511;28;20337;-72
2024/04/06 05:13:28;;;;;;;0.30;0.20;;;15.90;99.90;;;;;;5087577;28;20377;-72
2024/04/06 05:15:54;;;;;;;3.23;2.67;;;16.00;99.90;;;;;;5088014;28;20175;-72
2024/04/06 05:18:21;;;;;;;0.47;0.47;;;16.00;99.90;;;;;;5087488;28;20196;-71
2024/04/06 05:20:55;;;;;;;0.30;0.20;;;16.00;99.90;;;;;;5087768;28;20432;-72
2024/04/06 05:23:22;;;;;;;0.30;0.20;;;16.10;99.90;;;;;;5086758;28;20573;-71
2024/04/06 05:25:51;;;;;;;2.50;2.40;;;16.10;99.90;;;;;;5103354;28;20572;-72
2024/04/06 05:28:22;;;;;;;0.30;0.20;;;16.10;99.90;;;;;;5087410;28;20969;-72
2024/04/06 05:30:49;;;;;;;0.50;0.50;;;16.10;99.90;;;;;;5086240;28;20486;-72
2024/04/06 05:33:16;;;;;;;0.30;0.30;;;16.10;99.90;;;;;;5087361;28;20445;-71
2024/04/06 05:35:42;;;;;;;0.30;0.20;;;16.20;99.90;;;;;;5087654;28;20417;-72
2024/04/06 05:38:08;;;;;;;1.30;0.70;;;16.20;99.90;;;;;;5102958;28;20445;-72
2024/04/06 05:40:42;;;;;;;0.30;0.20;;;16.20;99.90;;;;;;5087868;28;20432;-71
2024/04/06 05:43:08;;;;;;;0.30;0.30;;;16.20;99.90;;;;;;5087237;28;20473;-71
2024/04/06 05:45:34;;;;;;;0.30;0.20;;;16.10;99.90;;;;;;5087503;28;20385;-72
2024/04/06 05:48:03;;;;;;;0.47;0.47;;;16.10;99.90;;;;;;5085889;28;20329;-72
2024/04/06 05:50:37;;;;;;;0.30;0.30;;;16.10;99.90;;;;;;5085874;28;20492;-72
2024/04/06 05:53:04;;;;;;;0.30;0.20;;;16.10;99.90;;;;;;5085470;28;20433;-71
2024/04/06 05:55:30;;;;;;;1.70;1.40;;;16.10;99.90;;;;;;5087484;28;20405;-72
2024/04/06 05:57:56;;;;;;;0.40;0.40;;;16.20;99.90;;;;;;5085323;28;21158;-72
2024/04/06 06:00:26;;;;;;;0.30;0.20;;;16.20;99.90;;;;;;5085217;28;20428;-72
2024/04/06 06:02:53;;;;;;;0.30;0.27;;;16.30;99.90;;;;;;5085232;28;20923;-72
2024/04/06 06:05:19;;;;;;;0.40;0.20;;;16.30;99.90;;;;;;5087262;28;20405;-71
2024/04/06 06:07:45;;;;;;;0.30;0.20;;;16.30;99.90;;;;;;5084583;28;20436;-71
2024/04/06 06:10:11;;;;;;;0.50;0.50;;;16.40;99.90;;;;;;5086502;28;20700;-71
2024/04/06 06:12:36;;;;;;;4.93;0.83;;;16.40;99.90;;;;;;5084639;28;20551;-72
2024/04/06 06:15:03;;;;;;;0.30;0.20;;;16.50;99.90;;;;;;5086313;28;20173;-72
2024/04/06 06:17:28;;;;;;;0.30;0.30;;;16.50;99.90;;;;;;5084542;28;20220;-72
2024/04/06 06:19:54;;;;;;;0.30;0.20;;;16.50;99.90;;;;;;5084644;28;20953;-72
2024/04/06 06:22:19;;;;;;;0.30;0.20;;;16.60;99.90;;;;;;5083449;28;20265;-71
2024/04/06 06:24:45;;;;;;;0.70;0.70;;;16.60;99.90;;;;;;5086455;28;20169;-72
2024/04/06 06:27:11;;;;;;;0.30;0.23;;;16.70;99.90;;;;;;5085680;28;20254;-72
2024/04/06 06:29:37;;;;;;;0.40;0.30;;;16.70;99.90;;;;;;5086192;28;20175;-71
2024/04/06 06:32:03;;;;;;;0.30;0.30;;;16.80;99.90;;;;;;5085929;28;20264;-72
2024/04/06 06:34:30;;;;;;;2.10;1.03;;;16.90;99.90;;;;;;5084647;28;20660;-72
2024/04/06 06:36:56;;;;;;;0.30;0.20;;;17.00;99.90;;;;;;5085929;28;20417;-72
2024/04/06 06:39:22;;;;;;;0.30;0.20;;;17.10;99.90;;;;;;5085484;28;20432;-73
2024/04/06 06:41:47;;;;;;;0.30;0.23;;;17.20;99.90;;;;;;5084566;28;20447;-72
2024/04/06 06:44:14;;;;;;;0.40;0.30;;;17.30;99.90;;;;;;5085543;28;20225;-72
2024/04/06 06:46:39;;;;;;;0.30;0.20;;;17.40;99.90;;;;;;5086218;28;20230;-72
2024/04/06 06:49:05;;;;;;;0.30;0.20;;;17.40;99.90;;;;;;5085602;28;20433;-72
2024/04/06 06:51:31;;;;;;;0.30;0.20;;;17.50;99.90;;;;;;5085836;28;20169;-72
2024/04/06 06:53:57;;;;;;;0.30;0.20;;;17.50;99.90;;;;;;5085358;28;20225;-72
2024/04/06 06:56:23;;;;;;;1.80;1.70;;;17.50;99.90;;;;;;5084159;28;20501;-72
2024/04/06 06:58:51;;;;;;;0.40;0.20;;;17.50;99.90;;;;;;5085128;28;20249;-72
2024/04/06 07:01:17;;;;;;;1.90;1.80;;;17.50;99.90;;;;;;5085710;28;20257;-72
2024/04/06 07:03:43;;;;;;;0.40;0.30;;;17.50;99.90;;;;;;5084302;28;20478;-72
2024/04/06 07:06:12;;;;;;;0.63;0.63;;;17.60;99.90;;;;;;5084638;28;20428;-72
2024/04/06 07:08:41;;;;;;;0.43;0.43;;;17.70;99.90;;;;;;5085665;28;20954;-72
2024/04/06 07:11:08;;;;;;;1.50;1.40;;;17.80;99.90;;;;;;5084545;28;20459;-72
2024/04/06 07:13:33;;;;;;;0.40;0.30;;;17.90;99.90;;;;;;5084469;28;20423;-72
2024/04/06 07:16:09;;;;;;;0.30;0.20;;;17.90;99.90;;;;;;5084566;28;20649;-72
2024/04/06 07:18:37;;;;;;;0.77;0.77;;;18.00;99.90;;;;;;5084175;28;20233;-72
2024/04/06 07:21:03;;;;;;;0.53;0.53;;;18.10;99.90;;;;;;5085630;28;20414;-72
2024/04/06 07:23:29;;;;;;;0.30;0.20;;;18.20;99.90;;;;;;5085385;28;20506;-72
2024/04/06 07:25:55;;;;;;;0.50;0.50;;;18.30;99.90;;;;;;5083564;28;20474;-72
2024/04/06 07:28:21;;;;;;;0.30;0.20;;;18.50;99.90;;;;;;5083499;28;20253;-72
2024/04/06 07:30:47;;;;;;;0.50;0.43;;;18.60;99.90;;;;;;5085826;28;20213;-72
2024/04/06 07:33:13;;;;;;;0.30;0.20;;;18.70;99.90;;;;;;5085012;28;20354;-72
2024/04/06 07:35:39;;;;;;;0.40;0.40;;;18.80;99.90;;;;;;5084308;28;20416;-72
2024/04/06 07:38:05;;;;;;;0.50;0.50;;;19.00;99.90;;;;;;5085218;28;20970;-72
2024/04/06 07:40:31;;;;;;;0.40;0.40;;;19.20;99.90;;;;;;5085598;28;20229;-72
2024/04/06 07:42:57;;;;;;;0.33;0.30;;;19.30;99.90;;;;;;5085434;28;20468;-72
2024/04/06 07:45:23;;;;;;;0.87;0.67;;;19.30;99.90;;;;;;5085292;28;20439;-72
2024/04/06 07:47:48;;;;;;;0.50;0.50;;;19.50;99.90;;;;;;5085248;28;20741;-72
2024/04/06 07:50:15;;;;;;;0.40;0.40;;;19.50;99.90;;;;;;5084517;28;20331;-72
2024/04/06 07:52:40;;;;;;;0.30;0.20;;;19.70;99.90;;;;;;5085661;28;20551;-72
2024/04/06 07:55:06;;;;;;;0.30;0.20;;;19.80;99.90;;;;;;5085689;28;20413;-72
2024/04/06 07:57:32;;;;;;;0.53;0.50;;;19.90;99.90;;;;;;5084886;28;20206;-73
2024/04/06 07:59:58;;;;;;;0.60;0.40;;;20.00;99.90;;;;;;5084090;28;20678;-72
2024/04/06 08:02:24;;;;;;;0.40;0.30;;;20.10;99.90;;;;;;5083875;28;20231;-72
2024/04/06 08:04:55;;;;;;;0.30;0.20;;;20.20;99.90;;;;;;5085135;28;20409;-72
2024/04/06 08:07:24;;;;;;;0.50;0.50;;;20.40;99.90;;;;;;5084097;28;20289;-72
2024/04/06 08:09:50;;;;;;;0.30;0.20;;;20.50;99.90;;;;;;5083833;28;20736;-72
2024/04/06 08:12:16;;;;;;;0.50;0.50;;;20.50;99.90;;;;;;5085109;28;20424;-72
2024/04/06 08:14:41;;;;;;;0.30;0.20;;;20.60;99.90;;;;;;5085592;28;20222;-73
2024/04/06 08:17:07;;;;;;;0.30;0.30;;;20.80;99.90;;;;;;5083851;28;20561;-72
2024/04/06 08:19:33;;;;;;;0.50;0.50;;;20.90;99.90;;;;;;5083919;28;20188;-72
2024/04/06 08:22:00;;;;;;;0.30;0.20;;;21.10;99.90;;;;;;5085044;28;20670;-73
2024/04/06 08:24:25;;;;;;;0.30;0.20;;;21.30;99.90;;;;;;5086795;28;20989;-73
2024/04/06 08:26:51;;;;;;;0.30;0.20;;;21.50;99.90;;;;;;5086930;28;20517;-72
2024/04/06 08:29:17;;;;;;;1.80;1.70;;;21.70;99.90;;;;;;5087205;28;20653;-72
2024/04/06 08:31:42;;;;;;;0.30;0.20;;;21.80;99.90;;;;;;5087279;28;20167;-72
2024/04/06 08:34:08;;;;;;;0.30;0.20;;;21.90;99.90;;;;;;5085727;28;20580;-73
2024/04/06 08:36:35;;;;;;;0.60;0.60;;;22.00;99.90;;;;;;5085713;28;20172;-73
2024/04/06 08:39:03;;;;;;;0.50;0.50;;;22.10;99.90;;;;;;5087298;28;20391;-73
2024/04/06 08:41:29;;;;;;;0.30;0.20;;;22.00;99.90;;;;;;5088238;28;20478;-72
2024/04/06 08:43:55;;;;;;;0.30;0.20;;;22.10;99.90;;;;;;5087193;28;20973;-72
2024/04/06 08:46:23;;;;;;;0.30;0.30;;;22.20;99.90;;;;;;5085590;28;20185;-73
2024/04/06 08:48:49;;;;;;;0.30;0.20;;;22.20;99.90;;;;;;5085854;28;20441;-73
2024/04/06 08:51:17;;;;;;;0.30;0.20;;;22.30;99.90;;;;;;5085059;28;20716;-73
2024/04/06 08:53:43;;;;;;;0.83;0.40;;;22.30;99.90;;;;;;5087179;28;21116;-72
2024/04/06 08:56:10;;;;;;;0.80;0.63;;;22.40;99.90;;;;;;5085124;28;20432;-73
2024/04/06 08:58:36;;;;;;;0.30;0.20;;;22.50;99.70;;;;;;5086524;28;20533;-72
2024/04/06 09:01:03;;;;;;;0.30;0.27;;;22.60;99.70;;;;;;5087331;28;20861;-73
2024/04/06 09:03:31;;;;;;;0.30;0.30;;;22.60;99.40;;;;;;5086458;28;20377;-72
2024/04/06 09:05:57;;;;;;;0.47;0.47;;;22.70;99.50;;;;;;5088611;28;20411;-73
2024/04/06 09:08:23;;;;;;;0.30;0.20;;;22.70;99.50;;;;;;5086649;28;20958;-73
2024/04/06 09:10:54;;;;;;;0.70;0.70;;;22.70;99.50;;;;;;5088299;28;20513;-73
2024/04/06 09:13:21;;;;;;;0.63;0.63;;;22.80;99.40;;;;;;5086351;28;20304;-72
2024/04/06 09:15:47;;;;;;;0.40;0.30;;;22.80;99.30;;;;;;5088472;28;20926;-73
2024/04/06 09:18:13;;;;;;;0.40;0.40;;;23.00;99.40;;;;;;5086348;28;20759;-73
2024/04/06 09:20:39;;;;;;;0.30;0.20;;;23.10;99.30;;;;;;5086360;28;20169;-72
2024/04/06 09:23:05;;;;;;;0.33;0.27;;;23.20;99.00;;;;;;5085930;28;20724;-73
2024/04/06 09:25:31;;;;;;;0.40;0.40;;;23.20;98.60;;;;;;5084686;28;20674;-73
2024/04/06 09:27:56;;;;;;;0.30;0.20;;;23.30;98.90;;;;;;5086269;28;20197;-73
2024/04/06 09:30:43;;;;;;;0.30;0.20;;;23.30;98.50;;;;;;5085988;28;20600;-72
2024/04/06 09:33:11;;;;;;;0.40;0.37;;;23.40;98.40;;;;;;5084388;28;20771;-73
2024/04/06 09:35:39;;;;;;;0.40;0.30;;;23.40;98.40;;;;;;5085692;28;20480;-72
2024/04/06 09:38:09;;;;;;;0.30;0.30;;;23.40;98.30;;;;;;5087655;28;20426;-73
2024/04/06 09:40:36;;;;;;;0.30;0.30;;;23.40;98.40;;;;;;5087888;28;20481;-73
2024/04/06 09:43:02;;;;;;;0.30;0.20;;;23.40;98.40;;;;;;5085633;28;21029;-73
2024/04/06 09:45:28;;;;;;;0.30;0.20;;;23.50;98.20;;;;;;5087279;28;20412;-73
2024/04/06 09:47:57;;;;;;;0.67;0.67;;;23.60;98.10;;;;;;5086228;28;20504;-73
2024/04/06 09:50:24;;;;;;;0.30;0.30;;;23.60;97.90;;;;;;5087324;28;20411;-73
2024/04/06 09:52:50;;;;;;;0.30;0.20;;;23.70;97.80;;;;;;5087294;28;20448;-73
2024/04/06 09:55:16;;;;;;;0.63;0.60;;;23.70;97.80;;;;;;5087303;28;20942;-73
2024/04/06 09:57:42;;;;;;;0.30;0.20;;;23.70;97.70;;;;;;5086917;28;20513;-72
2024/04/06 10:00:08;;;;;;;0.40;0.30;;;23.70;97.90;;;;;;5087578;28;20172;-73
2024/04/06 10:02:34;;;;;;;0.30;0.20;;;23.80;97.90;;;;;;5085734;28;20360;-73
2024/04/06 10:05:05;;;;;;;0.50;0.50;;;23.80;97.30;;;;;;5087109;28;20392;-73
2024/04/06 10:07:33;;;;;;;0.30;0.20;;;23.80;97.10;;;;;;5087142;28;20431;-72
2024/04/06 10:10:08;;;;;;;0.30;0.20;;;23.60;97.50;;;;;;5086954;28;20416;-73
2024/04/06 10:12:52;;;;;;;0.30;0.20;;;23.60;97.50;;;;;;5086754;28;20446;-72
2024/04/06 10:15:19;;;;;;;0.30;0.27;;;23.50;97.20;;;;;;5085400;28;20442;-73
2024/04/06 10:17:54;;;;;;;0.30;0.20;;;23.50;97.60;;;;;;5087163;28;20424;-73
2024/04/06 10:20:24;;;;;;;0.50;0.40;;;23.50;97.60;;;;;;5086737;28;20411;-72
2024/04/06 10:22:51;;;;;;;0.60;0.40;;;23.50;97.40;;;;;;5085261;28;21140;-73
2024/04/06 10:25:18;;;;;;;0.40;0.30;;;23.50;97.30;;;;;;5085318;28;20938;-73
2024/04/06 10:27:44;;;;;;;0.30;0.20;;;23.50;97.60;;;;;;5084911;28;20443;-73
2024/04/06 10:30:10;;;;;;;0.40;0.40;;;23.60;97.60;;;;;;5084515;28;20419;-72
2024/04/06 10:32:36;;;;;;;0.33;0.33;;;23.60;97.50;;;;;;5101619;28;20195;-72
2024/04/06 10:35:03;;;;;;;0.50;0.50;;;23.60;97.60;;;;;;5086654;28;20414;-73
2024/04/06 10:37:29;;;;;;;1.13;0.60;;;23.70;97.20;;;;;;5083945;28;20279;-73
2024/04/06 10:39:56;;;;;;;0.50;0.50;;;23.70;97.30;;;;;;5072886;28;20482;-74
2024/04/06 10:42:26;;;;;;;0.73;0.73;;;23.70;97.20;;;;;;5068756;28;20475;-73
2024/04/06 10:44:52;;;;;;;0.40;0.30;;;23.80;97.20;;;;;;5064538;28;20934;-73
2024/04/06 10:47:18;;;;;;;0.30;0.20;;;23.80;97.60;;;;;;5066738;28;20544;-73
2024/04/06 10:49:48;;;;;;;0.30;0.20;;;23.90;97.30;;;;;;5086477;28;20493;-73
2024/04/06 10:52:15;;;;;;;1.23;1.23;;;23.90;97.20;;;;;;5085882;28;20625;-72
2024/04/06 10:54:41;;;;;;;0.30;0.20;;;24.00;96.90;;;;;;5084752;28;20496;-73
2024/04/06 10:57:06;;;;;;;2.00;1.70;;;24.10;96.90;;;;;;5084396;28;20523;-72
2024/04/06 10:59:32;;;;;;;0.30;0.20;;;24.10;96.80;;;;;;5086195;28;20267;-73
2024/04/06 11:01:58;;;;;;;0.30;0.30;;;24.10;96.70;;;;;;5066752;28;20191;-72
2024/04/06 11:04:24;;;;;;;0.30;0.30;;;24.10;97.00;;;;;;5084731;28;20526;-73
2024/04/06 11:06:50;;;;;;;0.30;0.20;;;24.10;96.90;;;;;;5084931;28;20179;-73
2024/04/06 11:09:15;;;;;;;0.30;0.20;;;24.10;97.00;;;;;;5084654;28;20882;-72
2024/04/06 11:11:41;;;;;;;0.30;0.20;;;24.10;97.30;;;;;;5085424;28;20192;-72
2024/04/06 11:14:10;;;;;;;0.40;0.40;;;24.20;97.10;;;;;;5083552;28;20230;-73
2024/04/06 11:16:40;;;;;;;1.17;1.13;;;24.20;97.40;;;;;;5083895;28;20458;-73
2024/04/06 11:19:06;;;;;;;0.57;0.47;;;24.30;97.40;;;;;;5083463;28;20531;-73
2024/04/06 11:21:33;;;;;;;0.30;0.23;;;24.40;97.60;;;;;;5085140;28;20420;-72
2024/04/06 11:23:58;;;;;;;0.30;0.20;;;24.50;96.90;;;;;;5084807;28;20480;-72
2024/04/06 11:26:25;;;;;;;0.60;0.60;;;24.50;96.90;;;;;;5083897;28;20779;-73
2024/04/06 11:28:50;;;;;;;0.30;0.20;;;24.60;96.30;;;;;;5085010;28;20588;-73
2024/04/06 11:31:19;;;;;;;0.30;0.20;;;24.60;96.20;;;;;;5085005;28;20918;-72
2024/04/06 11:33:45;;;;;;;0.30;0.30;;;24.70;96.20;;;;;;5084610;28;20249;-72
2024/04/06 11:36:11;;;;;;;0.47;0.47;;;24.70;95.70;;;;;;5085343;28;20909;-73
2024/04/06 11:38:37;;;;;;;0.80;0.77;;;24.80;95.50;;;;;;5083377;28;20447;-73
2024/04/06 11:41:03;;;;;;;0.30;0.20;;;24.90;95.50;;;;;;5084947;28;20165;-73
2024/04/06 11:43:28;;;;;;;1.17;1.07;;;24.90;95.60;;;;;;5082778;28;20400;-73
2024/04/06 11:45:54;;;;;;;0.40;0.40;;;25.00;95.60;;;;;;5083124;28;20711;-73
2024/04/06 11:48:19;;;;;;;0.30;0.20;;;25.10;95.50;;;;;;5083524;28;20745;-72
2024/04/06 11:50:45;;;;;;;0.30;0.20;;;25.20;95.80;;;;;;5083640;28;20193;-72
2024/04/06 11:53:11;;;;;;;0.40;0.30;;;25.20;95.60;;;;;;5084225;28;20207;-73
2024/04/06 11:55:37;;;;;;;0.50;0.50;;;25.30;95.30;;;;;;5083554;28;20173;-73
2024/04/06 11:58:03;;;;;;;0.80;0.43;;;25.30;95.20;;;;;;5083023;28;20244;-73
2024/04/06 12:00:32;;;;;;;0.60;0.57;;;25.40;95.00;;;;;;5088249;28;20469;-73
2024/04/06 12:02:58;;;;;;;0.30;0.30;;;25.40;95.00;;;;;;5088210;28;20943;-73
2024/04/06 12:05:24;;;;;;;1.73;0.93;;;25.40;94.90;;;;;;5087826;28;20482;-74
2024/04/06 12:07:50;;;;;;;0.47;0.47;;;25.50;94.50;;;;;;5087037;28;20223;-73
2024/04/06 12:10:16;;;;;;;0.40;0.20;;;25.60;94.80;;;;;;5088713;28;20409;-73
2024/04/06 12:12:42;;;;;;;0.93;0.93;;;25.70;94.40;;;;;;5088300;28;20452;-74
2024/04/06 12:15:07;;;;;;;0.40;0.40;;;25.80;94.10;;;;;;5087445;28;20196;-73
2024/04/06 12:17:33;;;;;;;0.30;0.20;;;25.90;93.70;;;;;;5087921;28;20295;-73
2024/04/06 12:19:58;;;;;;;0.50;0.40;;;26.00;93.70;;;;;;5088586;28;20157;-73
2024/04/06 12:22:24;;;;;;;0.73;0.73;;;26.10;94.00;;;;;;5086674;28;20270;-73
2024/04/06 12:24:50;;;;;;;2.17;2.07;;;26.20;93.60;;;;;;5088463;28;20238;-73
2024/04/06 12:27:18;;;;;;;3.83;3.57;;;26.20;92.80;;;;;;5088102;28;20180;-73
2024/04/06 12:29:47;;;;;;;0.50;0.50;;;26.20;93.50;;;;;;5088319;28;20436;-73
2024/04/06 12:32:13;;;;;;;0.40;0.40;;;26.30;93.10;;;;;;5086122;28;20809;-73
2024/04/06 12:34:39;;;;;;;0.40;0.30;;;26.30;93.00;;;;;;5087273;28;20411;-73
2024/04/06 12:37:09;;;;;;;0.30;0.20;;;26.30;92.70;;;;;;5086825;28;20425;-73
2024/04/06 12:39:36;;;;;;;0.33;0.33;;;26.40;92.70;;;;;;5088430;28;20417;-72
2024/04/06 12:42:03;;;;;;;0.30;0.20;;;26.50;92.30;;;;;;5086390;28;20425;-73
2024/04/06 12:44:29;;;;;;;0.30;0.30;;;26.60;91.80;;;;;;5087984;28;20480;-73